Kitsap — WYR3421 — position and weather

sailwx.info

Track history (hours):
 
Tides and Currents Weather Stations Pressure Air Temp Water Temp Dewpoint Dewpoint Depression Visibility Wind Speed Wind Dir Waves Ship Positions

Kitsap

Owner: WASHINGTON, STATE OF; Department of Transportation, OLYMPIA, WA. More information available from US FCC via Universal Licensing System and Coast Guard Vessel Documentation Center.

Last reported at 2018-Jun-24 11:01 UTC. Time now 2018-Jun-24 11:03 UTC.
Position N 47°31' W 122°30'.

Length 100 m; draft 5 m.

Type: Passenger vessel. MMSI: 366772980.

Date/timePositionNaut miles runAvg speedWind from/ knotsBaromVisibWave heightAir tempDewpointWater temp
2018-Jun-24 11:01N 47°31' W 122°30'0 0.0
2018-Jun-24 10:31N 47°31' W 122°30'0 0.0
2018-Jun-24 10:01N 47°31' W 122°30'2 4.0
2018-Jun-24 09:30N 47°31' W 122°27'1 2.9
2018-Jun-24 09:00N 47°31' W 122°29'1 2.0
2018-Jun-24 08:30N 47°31' W 122°28'0 0.3
2018-Jun-24 08:00N 47°31' W 122°28'0 0.8
2018-Jun-24 07:30N 47°31' W 122°28'3 5.6
2018-Jun-24 07:00N 47°31' W 122°24'4 8.1
2018-Jun-24 06:30N 47°31' W 122°30'1 2.7
2018-Jun-24 06:00N 47°31' W 122°28'3 5.4
2018-Jun-24 05:30N 47°31' W 122°24'3 5.7
2018-Jun-24 05:00N 47°31' W 122°28'3 5.5
2018-Jun-24 04:30N 47°31' W 122°24'3 5.7
2018-Jun-24 04:01N 47°31' W 122°28'0 0.4
2018-Jun-24 03:31N 47°31' W 122°28'3 5.7
2018-Jun-24 03:00N 47°31' W 122°24'3 5.6
2018-Jun-24 02:30N 47°31' W 122°28'3 5.6
2018-Jun-24 02:01N 47°31' W 122°24'3 5.5
2018-Jun-24 01:30N 47°31' W 122°28'3 5.5
2018-Jun-24 01:00N 47°31' W 122°24'3 5.5
2018-Jun-24 00:30N 47°31' W 122°28'1 2.7
2018-Jun-24 00:00N 47°31' W 122°30'2 4.0
2018-Jun-23 23:30N 47°31' W 122°27'2 4.1
2018-Jun-23 23:00N 47°31' W 122°24'3 6.0
2018-Jun-23 22:31N 47°31' W 122°28'0 1.0
2018-Jun-23 22:01N 47°31' W 122°28'3 5.5
2018-Jun-23 21:30N 47°31' W 122°24'3 5.6
2018-Jun-23 21:00N 47°31' W 122°28'3 5.5
2018-Jun-23 20:30N 47°31' W 122°24'2 4.8
2018-Jun-23 20:00N 47°31' W 122°27'2 3.1
2018-Jun-23 19:31N 47°31' W 122°30'4 7.6
2018-Jun-23 19:00N 47°31' W 122°24'2 3.5
2018-Jun-23 18:30N 47°31' W 122°26'2 4.5
2018-Jun-23 18:00N 47°31' W 122°30'1 2.7
2018-Jun-23 17:31N 47°31' W 122°28'3 5.4
2018-Jun-23 17:00N 47°31' W 122°24'3 5.7
2018-Jun-23 16:30N 47°31' W 122°28'0 0.6
2018-Jun-23 16:00N 47°31' W 122°28'3 5.6
2018-Jun-23 15:30N 47°31' W 122°24'3 5.5
2018-Jun-23 15:00N 47°31' W 122°28'1 2.5
2018-Jun-23 14:31N 47°31' W 122°30'2 3.5
2018-Jun-23 14:00N 47°31' W 122°27'2 3.2
2018-Jun-23 13:30N 47°31' W 122°25'3 6.9
2018-Jun-23 13:00N 47°31' W 122°30'1 2.6
2018-Jun-23 12:30N 47°31' W 122°28'3 5.6
2018-Jun-23 12:01N 47°31' W 122°24'3 5.5
2018-Jun-23 11:30N 47°31' W 122°28'1 2.6
2018-Jun-23 11:00N 47°31' W 122°30'0 0.0
2018-Jun-23 10:30N 47°31' W 122°30'0 0.0
2018-Jun-23 10:00N 47°31' W 122°30'1 2.6
2018-Jun-23 09:30N 47°31' W 122°28'3 5.7
2018-Jun-23 09:00N 47°31' W 122°24'4 7.7
2018-Jun-23 08:31N 47°31' W 122°29'4 7.6
2018-Jun-23 08:00N 47°31' W 122°24'4 8.2
2018-Jun-23 07:30N 47°31' W 122°30'3 6.4
2018-Jun-23 07:00N 47°31' W 122°25'2 4.9
2018-Jun-23 06:30N 47°31' W 122°29'1 1.3
2018-Jun-23 06:00N 47°31' W 122°28'3 5.6
2018-Jun-23 05:30N 47°31' W 122°24'3 5.7
2018-Jun-23 05:01N 47°31' W 122°28'0 0.3
2018-Jun-23 04:30N 47°31' W 122°28'3 5.9
2018-Jun-23 04:01N 47°31' W 122°24'3 5.6
2018-Jun-23 03:30N 47°31' W 122°28'3 5.6
2018-Jun-23 03:00N 47°31' W 122°24'4 7.2
2018-Jun-23 02:30N 47°31' W 122°29'1 1.8
2018-Jun-23 02:01N 47°31' W 122°28'3 5.6
2018-Jun-23 01:30N 47°31' W 122°24'4 8.1
2018-Jun-23 01:00N 47°31' W 122°30'1 2.6
2018-Jun-23 00:30N 47°31' W 122°28'3 5.6
2018-Jun-23 00:00N 47°31' W 122°24'3 5.5
2018-Jun-22 23:30N 47°31' W 122°28'3 5.5
2018-Jun-22 23:00N 47°31' W 122°24'2 4.5
2018-Jun-22 22:30N 47°31' W 122°27'0 0.8
2018-Jun-22 22:00N 47°31' W 122°27'1 2.3
2018-Jun-22 21:30N 47°31' W 122°25'2 4.0
2018-Jun-22 21:00N 47°31' W 122°28'0 0.0
2018-Jun-22 20:31N 47°31' W 122°28'3 5.4
2018-Jun-22 20:00N 47°31' W 122°24'3 5.7
2018-Jun-22 19:30N 47°31' W 122°28'3 5.5
2018-Jun-22 19:00N 47°31' W 122°24'3 5.6
2018-Jun-22 18:31N 47°31' W 122°28'1 2.7
2018-Jun-22 18:00N 47°31' W 122°30'2 3.9
2018-Jun-22 17:30N 47°31' W 122°27'2 4.1
2018-Jun-22 17:00N 47°31' W 122°24'3 5.6
2018-Jun-22 16:30N 47°31' W 122°28'0 0.9
2018-Jun-22 16:00N 47°31' W 122°28'3 5.4
2018-Jun-22 15:30N 47°31' W 122°24'4 7.6
2018-Jun-22 15:01N 47°31' W 122°30'1 2.6
2018-Jun-22 14:30N 47°31' W 122°28'3 5.6
2018-Jun-22 14:00N 47°31' W 122°24'3 5.6
2018-Jun-22 13:31N 47°31' W 122°28'3 5.5
2018-Jun-22 13:00N 47°31' W 122°24'3 5.6
2018-Jun-22 12:31N 47°31' W 122°28'0 0.0
2018-Jun-22 12:01N 47°31' W 122°28'0 0.0
2018-Jun-22 11:31N 47°31' W 122°28'0 0.0
2018-Jun-22 11:00N 47°31' W 122°28'0 0.0
2018-Jun-22 10:31N 47°31' W 122°28'0 0.0
2018-Jun-22 10:01N 47°31' W 122°28'0 0.0
2018-Jun-22 09:31N 47°31' W 122°28'0 0.0
2018-Jun-22 09:00N 47°31' W 122°28'0 0.0
2018-Jun-22 08:31N 47°31' W 122°28'0 0.0
2018-Jun-22 08:00N 47°31' W 122°28'0 0.0
2018-Jun-22 07:31N 47°31' W 122°28'0 0.0
2018-Jun-22 07:00N 47°31' W 122°28'0 0.0
2018-Jun-22 06:31N 47°31' W 122°28'0 0.0
2018-Jun-22 06:01N 47°31' W 122°28'0 0.0
2018-Jun-22 05:31N 47°31' W 122°28'0 0.0
2018-Jun-22 05:01N 47°31' W 122°28'0 0.0
2018-Jun-22 04:31N 47°31' W 122°28'3 5.3
2018-Jun-22 04:00N 47°31' W 122°24'1 1.1
2018-Jun-22 03:31N 47°31' W 122°25'2 3.1
2018-Jun-22 03:00N 47°30' W 122°27'2 4.2
2018-Jun-22 02:30N 47°31' W 122°30'1 2.8
2018-Jun-22 02:00N 47°31' W 122°28'3 5.4
2018-Jun-22 01:31N 47°31' W 122°24'4 8.1
2018-Jun-22 01:00N 47°31' W 122°30'3 5.3
2018-Jun-22 00:31N 47°31' W 122°26'1 2.7
2018-Jun-22 00:00N 47°31' W 122°24'3 5.4
2018-Jun-21 23:31N 47°31' W 122°28'3 5.5
2018-Jun-21 23:00N 47°31' W 122°24'2 4.8
2018-Jun-21 22:31N 47°31' W 122°27'0 0.6
2018-Jun-21 22:00N 47°31' W 122°27'1 2.9
2018-Jun-21 21:30N 47°31' W 122°25'2 4.0
2018-Jun-21 21:00N 47°31' W 122°28'0 0.0
2018-Jun-21 20:30N 47°31' W 122°28'2 4.2
2018-Jun-21 20:00N 47°31' W 122°25'2 4.0
2018-Jun-21 19:31N 47°31' W 122°28'3 5.3
2018-Jun-21 19:00N 47°31' W 122°24'3 5.6
2018-Jun-21 18:30N 47°31' W 122°28'1 2.7
2018-Jun-21 18:00N 47°31' W 122°30'2 4.1
2018-Jun-21 17:30N 47°31' W 122°27'2 4.0
2018-Jun-21 17:00N 47°31' W 122°24'3 5.6
2018-Jun-21 16:31N 47°31' W 122°28'1 1.2
2018-Jun-21 16:00N 47°31' W 122°28'3 5.9
2018-Jun-21 15:30N 47°31' W 122°24'4 7.6
2018-Jun-21 15:01N 47°31' W 122°30'1 2.5
2018-Jun-21 14:30N 47°31' W 122°28'3 5.5
2018-Jun-21 14:00N 47°31' W 122°24'3 5.5
2018-Jun-21 13:30N 47°31' W 122°28'3 5.6
2018-Jun-21 13:01N 47°31' W 122°24'3 5.5
2018-Jun-21 12:31N 47°31' W 122°28'0 0.0
2018-Jun-21 12:00N 47°31' W 122°28'0 0.0
2018-Jun-21 11:30N 47°31' W 122°28'0 0.0
2018-Jun-21 11:00N 47°31' W 122°28'0 0.0
2018-Jun-21 10:30N 47°31' W 122°28'0 0.0
2018-Jun-21 10:00N 47°31' W 122°28'0 0.0
2018-Jun-21 09:31N 47°31' W 122°28'0 0.0
2018-Jun-21 09:00N 47°31' W 122°28'0 0.0
2018-Jun-21 08:31N 47°31' W 122°28'0 0.0
2018-Jun-21 08:00N 47°31' W 122°28'0 0.0
2018-Jun-21 07:30N 47°31' W 122°28'0 0.0
2018-Jun-21 07:00N 47°31' W 122°28'0 0.0
2018-Jun-21 06:31N 47°31' W 122°28'0 0.0
2018-Jun-21 06:01N 47°31' W 122°28'0 0.0
2018-Jun-21 05:30N 47°31' W 122°28'0 0.1
2018-Jun-21 05:01N 47°31' W 122°28'0 0.1
2018-Jun-21 04:31N 47°31' W 122°28'2 4.3
2018-Jun-21 04:00N 47°31' W 122°25'1 1.2
2018-Jun-21 03:31N 47°31' W 122°24'3 5.4
2018-Jun-21 03:00N 47°31' W 122°28'1 2.6
2018-Jun-21 02:30N 47°31' W 122°30'4 7.8
2018-Jun-21 02:01N 47°31' W 122°24'2 4.9
2018-Jun-21 01:30N 47°31' W 122°28'0 0.7
2018-Jun-21 01:00N 47°31' W 122°28'3 5.5
2018-Jun-21 00:30N 47°31' W 122°24'1 1.5
2018-Jun-21 00:00N 47°31' W 122°25'2 4.2
2018-Jun-20 23:30N 47°31' W 122°28'3 5.5
2018-Jun-20 23:00N 47°31' W 122°24'3 5.5
2018-Jun-20 22:30N 47°31' W 122°28'2 3.4
2018-Jun-20 22:00N 47°31' W 122°25'0 1.0
2018-Jun-20 21:30N 47°31' W 122°25'2 4.3
2018-Jun-20 21:00N 47°31' W 122°28'0 0.0
2018-Jun-20 20:30N 47°31' W 122°28'2 4.1
2018-Jun-20 20:01N 47°31' W 122°25'1 2.2
2018-Jun-20 19:30N 47°31' W 122°26'2 3.6
2018-Jun-20 19:00N 47°31' W 122°24'3 5.5
2018-Jun-20 18:30N 47°31' W 122°28'1 2.6
2018-Jun-20 18:00N 47°31' W 122°30'2 3.8
2018-Jun-20 17:31N 47°31' W 122°27'2 4.4
2018-Jun-20 17:01N 47°31' W 122°24'3 5.5
2018-Jun-20 16:31N 47°31' W 122°28'1 1.6
2018-Jun-20 16:00N 47°31' W 122°27'2 3.6
2018-Jun-20 15:31N 47°31' W 122°24'4 7.5
2018-Jun-20 15:00N 47°31' W 122°30'1 2.5
2018-Jun-20 14:30N 47°31' W 122°28'3 5.5
2018-Jun-20 14:00N 47°31' W 122°24'3 5.6
2018-Jun-20 13:31N 47°31' W 122°28'3 5.5
2018-Jun-20 13:01N 47°31' W 122°24'3 5.5
2018-Jun-20 12:30N 47°31' W 122°28'0 0.0
2018-Jun-20 12:00N 47°31' W 122°28'0 0.0
2018-Jun-20 11:30N 47°31' W 122°28'0 0.0
2018-Jun-20 11:00N 47°31' W 122°28'0 0.0
2018-Jun-20 10:30N 47°31' W 122°28'0 0.0
2018-Jun-20 10:00N 47°31' W 122°28'0 0.0
2018-Jun-20 09:30N 47°31' W 122°28'0 0.0
2018-Jun-20 09:00N 47°31' W 122°28'0 0.0
2018-Jun-20 08:30N 47°31' W 122°28'0 0.0
2018-Jun-20 08:00N 47°31' W 122°28'0 0.0
2018-Jun-20 07:30N 47°31' W 122°28'0 0.0
2018-Jun-20 07:00N 47°31' W 122°28'0 0.0
2018-Jun-20 06:30N 47°31' W 122°28'0 0.0
2018-Jun-20 06:00N 47°31' W 122°28'0 0.0
2018-Jun-20 05:30N 47°31' W 122°28'0 0.0
2018-Jun-20 05:00N 47°31' W 122°28'1 2.5
2018-Jun-20 04:30N 47°31' W 122°30'4 7.9
2018-Jun-20 04:01N 47°31' W 122°24'3 5.4
2018-Jun-20 03:30N 47°31' W 122°28'2 4.2
2018-Jun-20 03:00N 47°31' W 122°25'2 4.7
2018-Jun-20 02:31N 47°31' W 122°28'0 0.9
2018-Jun-20 02:00N 47°31' W 122°28'3 5.7
2018-Jun-20 01:30N 47°31' W 122°24'4 8.1
2018-Jun-20 01:01N 47°31' W 122°30'1 2.7
2018-Jun-20 00:30N 47°31' W 122°28'3 5.3
2018-Jun-20 00:00N 47°31' W 122°24'3 5.6
2018-Jun-19 23:30N 47°31' W 122°28'3 5.5
2018-Jun-19 23:00N 47°31' W 122°24'2 4.0
2018-Jun-19 22:30N 47°31' W 122°27'0 0.5
2018-Jun-19 22:00N 47°31' W 122°27'1 2.6
2018-Jun-19 21:30N 47°31' W 122°25'2 4.2
2018-Jun-19 21:00N 47°31' W 122°28'0 0.0
2018-Jun-19 20:30N 47°31' W 122°28'2 3.5
2018-Jun-19 20:01N 47°31' W 122°25'1 1.7
2018-Jun-19 19:31N 47°31' W 122°27'1 2.5
2018-Jun-19 19:00N 47°31' W 122°25'2 4.3
2018-Jun-19 18:30N 47°31' W 122°28'1 2.7
2018-Jun-19 18:01N 47°31' W 122°30'2 4.4
2018-Jun-19 17:31N 47°31' W 122°27'2 3.7
2018-Jun-19 17:00N 47°31' W 122°24'3 5.6
2018-Jun-19 16:31N 47°31' W 122°28'0 0.6
2018-Jun-19 16:00N 47°31' W 122°28'3 5.8
2018-Jun-19 15:30N 47°31' W 122°24'4 7.3
2018-Jun-19 15:00N 47°31' W 122°29'1 1.9
2018-Jun-19 14:30N 47°31' W 122°28'3 5.6
2018-Jun-19 14:00N 47°31' W 122°24'3 5.5
2018-Jun-19 13:30N 47°31' W 122°28'3 5.5
2018-Jun-19 13:00N 47°31' W 122°24'3 5.6
2018-Jun-19 12:30N 47°31' W 122°28'0 0.0
2018-Jun-19 12:00N 47°31' W 122°28'0 0.0
2018-Jun-19 11:30N 47°31' W 122°28'0 0.0
2018-Jun-19 11:00N 47°31' W 122°28'0 0.0
2018-Jun-19 10:30N 47°31' W 122°28'0 0.0
2018-Jun-19 10:00N 47°31' W 122°28'0 0.0
2018-Jun-19 09:30N 47°31' W 122°28'0 0.0
2018-Jun-19 09:00N 47°31' W 122°28'0 0.0
2018-Jun-19 08:30N 47°31' W 122°28'0 0.0
2018-Jun-19 08:00N 47°31' W 122°28'0 0.0
2018-Jun-19 07:30N 47°31' W 122°28'0 0.0
2018-Jun-19 07:00N 47°31' W 122°28'0 0.0
2018-Jun-19 06:30N 47°31' W 122°28'0 0.0
2018-Jun-19 06:00N 47°31' W 122°28'0 0.0
2018-Jun-19 05:31N 47°31' W 122°28'0 0.0
2018-Jun-19 05:00N 47°31' W 122°28'1 2.4
2018-Jun-19 04:30N 47°31' W 122°30'4 7.9
2018-Jun-19 04:00N 47°31' W 122°24'3 5.3
2018-Jun-19 03:31N 47°31' W 122°28'1 1.6
2018-Jun-19 03:01N 47°31' W 122°26'2 3.1
2018-Jun-19 02:30N 47°31' W 122°29'1 1.4
2018-Jun-19 02:00N 47°31' W 122°28'3 5.6
2018-Jun-19 01:30N 47°31' W 122°24'4 8.1
2018-Jun-19 01:01N 47°31' W 122°30'1 2.6
2018-Jun-19 00:30N 47°31' W 122°28'3 5.6
2018-Jun-19 00:00N 47°31' W 122°24'3 5.5
2018-Jun-18 23:30N 47°31' W 122°28'3 5.3
2018-Jun-18 22:59N 47°31' W 122°24'2 3.7
2018-Jun-18 22:31N 47°31' W 122°26'1 1.0
2018-Jun-18 22:00N 47°31' W 122°27'1 1.9
2018-Jun-18 21:30N 47°31' W 122°26'1 2.9
2018-Jun-18 21:00N 47°31' W 122°28'0 0.0
2018-Jun-18 20:30N 47°31' W 122°28'2 4.1
2018-Jun-18 20:01N 47°31' W 122°25'2 3.4
2018-Jun-18 19:30N 47°31' W 122°27'2 4.9
2018-Jun-18 19:00N 47°31' W 122°24'3 5.6
2018-Jun-18 18:30N 47°31' W 122°28'1 2.6
2018-Jun-18 18:00N 47°31' W 122°30'3 5.3
2018-Jun-18 17:30N 47°31' W 122°26'1 2.8
2018-Jun-18 17:00N 47°31' W 122°24'3 5.5
2018-Jun-18 16:31N 47°31' W 122°28'0 0.8
2018-Jun-18 16:01N 47°31' W 122°28'2 4.5
2018-Jun-18 15:31N 47°31' W 122°25'4 7.0
2018-Jun-18 15:00N 47°31' W 122°30'1 2.7
2018-Jun-18 14:30N 47°31' W 122°28'3 5.4
2018-Jun-18 14:00N 47°31' W 122°24'3 5.7
2018-Jun-18 13:30N 47°31' W 122°28'3 5.5
2018-Jun-18 13:01N 47°31' W 122°24'3 5.4
2018-Jun-18 12:30N 47°31' W 122°28'0 0.0
2018-Jun-18 12:00N 47°31' W 122°28'0 0.0
2018-Jun-18 11:31N 47°31' W 122°28'0 0.0
2018-Jun-18 11:00N 47°31' W 122°28'0 0.0
2018-Jun-18 10:31N 47°31' W 122°28'0 0.0
2018-Jun-18 10:00N 47°31' W 122°28'0 0.0
2018-Jun-18 09:30N 47°31' W 122°28'0 0.0
2018-Jun-18 09:01N 47°31' W 122°28'0 0.0
2018-Jun-18 08:31N 47°31' W 122°28'0 0.0
2018-Jun-18 08:00N 47°31' W 122°28'0 0.0
2018-Jun-18 07:30N 47°31' W 122°28'0 0.0
2018-Jun-18 07:00N 47°31' W 122°28'0 0.0
2018-Jun-18 06:31N 47°31' W 122°28'0 0.0
2018-Jun-18 06:01N 47°31' W 122°28'0 0.0
2018-Jun-18 05:31N 47°31' W 122°28'0 0.0
2018-Jun-18 05:00N 47°31' W 122°28'0 0.0
2018-Jun-18 04:30N 47°31' W 122°28'0 0.0
2018-Jun-18 04:00N 47°31' W 122°28'0 0.0
2018-Jun-18 03:31N 47°31' W 122°28'0 0.9
2018-Jun-18 03:00N 47°31' W 122°27'1 2.0
2018-Jun-18 02:30N 47°31' W 122°26'3 5.3
2018-Jun-18 02:00N 47°31' W 122°30'4 8.1
2018-Jun-18 01:30N 47°31' W 122°24'3 5.5
2018-Jun-18 01:00N 47°31' W 122°28'3 5.5
2018-Jun-18 00:30N 47°31' W 122°24'2 3.8
2018-Jun-18 00:00N 47°31' W 122°27'1 1.1
2018-Jun-17 23:30N 47°31' W 122°27'2 4.8
2018-Jun-17 22:59N 47°31' W 122°24'3 5.6
2018-Jun-17 22:31N 47°31' W 122°28'1 2.8
2018-Jun-17 22:00N 47°31' W 122°30'1 2.6
2018-Jun-17 21:31N 47°31' W 122°28'3 5.6
2018-Jun-17 21:01N 47°31' W 122°24'3 5.5
2018-Jun-17 20:31N 47°31' W 122°28'3 5.4
2018-Jun-17 20:00N 47°31' W 122°24'3 5.5
2018-Jun-17 19:31N 47°31' W 122°28'0 0.3
2018-Jun-17 19:00N 47°31' W 122°28'0 0.0
2018-Jun-17 18:30N 47°31' W 122°28'0 0.0
2018-Jun-17 18:00N 47°31' W 122°28'0 0.0
2018-Jun-17 17:30N 47°31' W 122°28'0 0.0
2018-Jun-17 17:00N 47°31' W 122°28'0 0.0
2018-Jun-17 16:30N 47°31' W 122°28'0 0.0
2018-Jun-17 16:00N 47°31' W 122°28'0 0.0
2018-Jun-17 15:30N 47°31' W 122°28'0 0.0
2018-Jun-17 15:00N 47°31' W 122°28'0 0.0
2018-Jun-17 14:30N 47°31' W 122°28'0 0.0
2018-Jun-17 14:00N 47°31' W 122°28'0 0.0
2018-Jun-17 13:30N 47°31' W 122°28'0 0.0
2018-Jun-17 13:00N 47°31' W 122°28'0 0.0
2018-Jun-17 12:30N 47°31' W 122°28'0 0.0
2018-Jun-17 12:00N 47°31' W 122°28'0 0.0
2018-Jun-17 11:30N 47°31' W 122°28'0 0.0
2018-Jun-17 11:00N 47°31' W 122°28'0 0.0
2018-Jun-17 10:30N 47°31' W 122°28'0 0.0
2018-Jun-17 10:00N 47°31' W 122°28'0 0.0
2018-Jun-17 09:30N 47°31' W 122°28'0 0.0
2018-Jun-17 09:00N 47°31' W 122°28'0 0.0
2018-Jun-17 08:30N 47°31' W 122°28'0 0.0
2018-Jun-17 08:00N 47°31' W 122°28'0 0.0
2018-Jun-17 07:30N 47°31' W 122°28'0 0.0
2018-Jun-17 07:00N 47°31' W 122°28'0 0.0
2018-Jun-17 06:30N 47°31' W 122°28'0 0.0
2018-Jun-17 06:00N 47°31' W 122°28'0 0.0
2018-Jun-17 05:30N 47°31' W 122°28'0 0.0
2018-Jun-17 05:00N 47°31' W 122°28'0 0.0
2018-Jun-17 04:30N 47°31' W 122°28'0 0.0
2018-Jun-17 04:00N 47°31' W 122°28'0 0.0
2018-Jun-17 03:30N 47°31' W 122°28'0 0.0
2018-Jun-17 03:00N 47°31' W 122°28'0 0.0
2018-Jun-17 02:30N 47°31' W 122°28'0 0.0
2018-Jun-17 02:00N 47°31' W 122°28'0 0.0
2018-Jun-17 01:30N 47°31' W 122°28'0 0.0
2018-Jun-17 01:00N 47°31' W 122°28'0 0.0
2018-Jun-17 00:30N 47°31' W 122°28'0 0.0
2018-Jun-17 00:00N 47°31' W 122°28'3 5.6
2018-Jun-16 23:30N 47°31' W 122°24'3 5.5
2018-Jun-16 23:00N 47°31' W 122°28'3 5.6
2018-Jun-16 22:31N 47°31' W 122°24'3 5.6
2018-Jun-16 22:00N 47°31' W 122°28'1 2.6
2018-Jun-16 21:31N 47°31' W 122°30'3 5.7
2018-Jun-16 21:00N 47°31' W 122°26'0 1.0
2018-Jun-16 20:31N 47°31' W 122°26'1 3.0
2018-Jun-16 20:00N 47°31' W 122°24'3 5.5
2018-Jun-16 19:30N 47°31' W 122°28'1 2.6
2018-Jun-16 19:00N 47°31' W 122°30'3 6.5
2018-Jun-16 18:30N 47°31' W 122°25'0 0.8
2018-Jun-16 18:01N 47°31' W 122°25'2 4.2
2018-Jun-16 17:31N 47°31' W 122°28'1 1.6
2018-Jun-16 17:00N 47°32' W 122°28'3 5.4
2018-Jun-16 16:31N 47°31' W 122°24'2 4.6
2018-Jun-16 16:00N 47°31' W 122°28'0 0.0
2018-Jun-16 15:30N 47°31' W 122°28'0 0.0
2018-Jun-16 15:00N 47°31' W 122°28'0 0.0
2018-Jun-16 14:30N 47°31' W 122°28'0 0.0
2018-Jun-16 14:00N 47°31' W 122°28'0 0.0
2018-Jun-16 13:30N 47°31' W 122°28'0 0.0
2018-Jun-16 13:00N 47°31' W 122°28'0 0.0
2018-Jun-16 12:30N 47°31' W 122°28'0 0.0
2018-Jun-16 12:00N 47°31' W 122°28'0 0.0
2018-Jun-16 11:30N 47°31' W 122°28'0 0.0
2018-Jun-16 11:00N 47°31' W 122°28'0 0.0
2018-Jun-16 10:30N 47°31' W 122°28'0 0.0
2018-Jun-16 10:00N 47°31' W 122°28'0 0.0
2018-Jun-16 09:30N 47°31' W 122°28'0 0.0
2018-Jun-16 09:00N 47°31' W 122°28'0 0.0
2018-Jun-16 08:30N 47°31' W 122°28'0 0.0
2018-Jun-16 08:00N 47°31' W 122°28'0 0.0
2018-Jun-16 07:30N 47°31' W 122°28'0 0.0
2018-Jun-16 07:00N 47°31' W 122°28'0 0.0
2018-Jun-16 06:30N 47°31' W 122°28'0 0.0
2018-Jun-16 06:00N 47°31' W 122°28'0 0.0
2018-Jun-16 05:30N 47°31' W 122°28'0 0.0
2018-Jun-16 05:00N 47°31' W 122°28'2 3.1
2018-Jun-16 04:30N 47°31' W 122°26'1 1.1
2018-Jun-16 04:01N 47°31' W 122°25'3 5.9
2018-Jun-16 03:30N 47°31' W 122°29'1 2.0
2018-Jun-16 03:01N 47°31' W 122°28'3 5.5
2018-Jun-16 02:30N 47°31' W 122°24'3 5.5
2018-Jun-16 02:00N 47°31' W 122°28'1 2.7
2018-Jun-16 01:30N 47°31' W 122°30'2 4.0
2018-Jun-16 01:01N 47°31' W 122°27'2 3.0
2018-Jun-16 00:31N 47°31' W 122°25'1 2.6
2018-Jun-16 00:01N 47°31' W 122°26'1 2.3
2018-Jun-15 23:30N 47°31' W 122°25'3 6.8
2018-Jun-15 23:00N 47°31' W 122°30'4 8.1
2018-Jun-15 22:30N 47°31' W 122°24'3 5.8
2018-Jun-15 22:01N 47°31' W 122°28'2 3.7
2018-Jun-15 21:30N 47°31' W 122°25'1 1.8
2018-Jun-15 21:00N 47°31' W 122°27'1 2.0
2018-Jun-15 20:30N 47°31' W 122°25'1 1.1
2018-Jun-15 20:00N 47°31' W 122°24'3 6.2
2018-Jun-15 19:30N 47°31' W 122°29'1 1.5
2018-Jun-15 19:00N 47°31' W 122°28'3 5.5
2018-Jun-15 18:30N 47°31' W 122°24'3 5.6
2018-Jun-15 18:01N 47°31' W 122°28'2 4.9
2018-Jun-15 17:30N 47°31' W 122°24'3 6.7
2018-Jun-15 17:01N 47°31' W 122°29'1 1.8
2018-Jun-15 16:30N 47°31' W 122°28'3 5.5
2018-Jun-15 16:00N 47°31' W 122°24'3 5.7
2018-Jun-15 15:30N 47°31' W 122°28'1 1.8
2018-Jun-15 15:00N 47°31' W 122°27'1 3.0
2018-Jun-15 14:30N 47°31' W 122°25'1 2.9
2018-Jun-15 14:00N 47°31' W 122°27'1 2.9
2018-Jun-15 13:30N 47°31' W 122°25'3 6.4
2018-Jun-15 13:00N 47°31' W 122°30'1 2.6
2018-Jun-15 12:30N 47°31' W 122°28'3 5.6
2018-Jun-15 12:00N 47°31' W 122°24'3 5.6
2018-Jun-15 11:30N 47°31' W 122°28'1 2.6
2018-Jun-15 11:00N 47°31' W 122°30'0 0.0
2018-Jun-15 10:31N 47°31' W 122°30'0 0.0
2018-Jun-15 10:01N 47°31' W 122°30'1 2.6
2018-Jun-15 09:31N 47°31' W 122°28'2 4.9
2018-Jun-15 09:00N 47°31' W 122°24'4 7.3
2018-Jun-15 08:31N 47°31' W 122°30'3 5.8
2018-Jun-15 08:01N 47°31' W 122°25'2 4.2
2018-Jun-15 07:31N 47°31' W 122°29'1 1.7
2018-Jun-15 07:00N 47°31' W 122°28'2 4.4
2018-Jun-15 06:30N 47°31' W 122°25'2 4.3
2018-Jun-15 06:01N 47°31' W 122°28'3 5.5
2018-Jun-15 05:31N 47°31' W 122°24'3 5.6
2018-Jun-15 05:01N 47°31' W 122°28'3 5.4
2018-Jun-15 04:29N 47°31' W 122°24'3 5.9
2018-Jun-15 04:01N 47°31' W 122°28'1 2.5
2018-Jun-15 03:30N 47°31' W 122°30'1 2.4
2018-Jun-15 03:00N 47°31' W 122°28'3 5.6
2018-Jun-15 02:30N 47°31' W 122°24'3 5.6
2018-Jun-15 02:00N 47°31' W 122°28'0 0.2
2018-Jun-15 01:30N 47°31' W 122°28'3 5.6
2018-Jun-15 01:00N 47°31' W 122°24'3 5.6
2018-Jun-15 00:30N 47°31' W 122°28'3 5.5
2018-Jun-15 00:00N 47°31' W 122°24'4 8.2
2018-Jun-14 23:31N 47°31' W 122°30'3 6.5
2018-Jun-14 23:01N 47°31' W 122°25'0 0.3
2018-Jun-14 22:30N 47°32' W 122°25'3 6.5
2018-Jun-14 22:00N 47°31' W 122°30'4 7.8
2018-Jun-14 21:30N 47°31' W 122°24'3 5.6
2018-Jun-14 21:01N 47°31' W 122°28'2 3.5
2018-Jun-14 20:30N 47°31' W 122°25'1 2.0
2018-Jun-14 20:01N 47°31' W 122°24'4 7.3
2018-Jun-14 19:30N 47°31' W 122°29'1 2.1
2018-Jun-14 19:00N 47°31' W 122°28'3 5.5
2018-Jun-14 18:30N 47°31' W 122°24'3 5.6
2018-Jun-14 18:01N 47°31' W 122°28'2 4.8
2018-Jun-14 17:31N 47°31' W 122°24'3 6.4
2018-Jun-14 17:01N 47°31' W 122°29'1 1.8
2018-Jun-14 16:31N 47°31' W 122°28'3 5.6
2018-Jun-14 16:00N 47°31' W 122°24'3 5.5
2018-Jun-14 15:31N 47°31' W 122°28'1 2.1
2018-Jun-14 15:01N 47°32' W 122°27'1 2.6
2018-Jun-14 14:30N 47°31' W 122°25'1 2.7
2018-Jun-14 14:01N 47°31' W 122°27'1 2.7
2018-Jun-14 13:30N 47°31' W 122°25'3 6.4
2018-Jun-14 13:00N 47°31' W 122°30'1 2.6
2018-Jun-14 12:30N 47°31' W 122°28'3 5.7
2018-Jun-14 12:00N 47°31' W 122°24'3 5.6
2018-Jun-14 11:31N 47°31' W 122°28'  
Track history (hours):
 
Tides and Currents Weather Stations Pressure Air Temp Water Temp Dewpoint Dewpoint Depression Visibility Wind Speed Wind Dir Waves Ship Positions

Kitsap

Owner: WASHINGTON, STATE OF; Department of Transportation, OLYMPIA, WA. More information available from US FCC via Universal Licensing System and Coast Guard Vessel Documentation Center.

Last reported at 2018-Jun-24 11:01 UTC. Time now 2018-Jun-24 11:03 UTC.
Position N 47°31' W 122°30'.

Length 100 m; draft 5 m.

Type: Passenger vessel. MMSI: 366772980.

Date/timePositionNaut miles runAvg speedWind from/ knotsBaromVisibWave heightAir tempDewpointWater temp
2018-Jun-24 11:01N 47°31' W 122°30'0 0.0
2018-Jun-24 10:31N 47°31' W 122°30'0 0.0
2018-Jun-24 10:01N 47°31' W 122°30'2 4.0
2018-Jun-24 09:30N 47°31' W 122°27'1 2.9
2018-Jun-24 09:00N 47°31' W 122°29'1 2.0
2018-Jun-24 08:30N 47°31' W 122°28'0 0.3
2018-Jun-24 08:00N 47°31' W 122°28'0 0.8
2018-Jun-24 07:30N 47°31' W 122°28'3 5.6
2018-Jun-24 07:00N 47°31' W 122°24'4 8.1
2018-Jun-24 06:30N 47°31' W 122°30'1 2.7
2018-Jun-24 06:00N 47°31' W 122°28'3 5.4
2018-Jun-24 05:30N 47°31' W 122°24'3 5.7
2018-Jun-24 05:00N 47°31' W 122°28'3 5.5
2018-Jun-24 04:30N 47°31' W 122°24'3 5.7
2018-Jun-24 04:01N 47°31' W 122°28'0 0.4
2018-Jun-24 03:31N 47°31' W 122°28'3 5.7
2018-Jun-24 03:00N 47°31' W 122°24'3 5.6
2018-Jun-24 02:30N 47°31' W 122°28'3 5.6
2018-Jun-24 02:01N 47°31' W 122°24'3 5.5
2018-Jun-24 01:30N 47°31' W 122°28'3 5.5
2018-Jun-24 01:00N 47°31' W 122°24'3 5.5
2018-Jun-24 00:30N 47°31' W 122°28'1 2.7
2018-Jun-24 00:00N 47°31' W 122°30'2 4.0
2018-Jun-23 23:30N 47°31' W 122°27'2 4.1
2018-Jun-23 23:00N 47°31' W 122°24'3 6.0
2018-Jun-23 22:31N 47°31' W 122°28'0 1.0
2018-Jun-23 22:01N 47°31' W 122°28'3 5.5
2018-Jun-23 21:30N 47°31' W 122°24'3 5.6
2018-Jun-23 21:00N 47°31' W 122°28'3 5.5
2018-Jun-23 20:30N 47°31' W 122°24'2 4.8
2018-Jun-23 20:00N 47°31' W 122°27'2 3.1
2018-Jun-23 19:31N 47°31' W 122°30'4 7.6
2018-Jun-23 19:00N 47°31' W 122°24'2 3.5
2018-Jun-23 18:30N 47°31' W 122°26'2 4.5
2018-Jun-23 18:00N 47°31' W 122°30'1 2.7
2018-Jun-23 17:31N 47°31' W 122°28'3 5.4
2018-Jun-23 17:00N 47°31' W 122°24'3 5.7
2018-Jun-23 16:30N 47°31' W 122°28'0 0.6
2018-Jun-23 16:00N 47°31' W 122°28'3 5.6
2018-Jun-23 15:30N 47°31' W 122°24'3 5.5
2018-Jun-23 15:00N 47°31' W 122°28'1 2.5
2018-Jun-23 14:31N 47°31' W 122°30'2 3.5
2018-Jun-23 14:00N 47°31' W 122°27'2 3.2
2018-Jun-23 13:30N 47°31' W 122°25'3 6.9
2018-Jun-23 13:00N 47°31' W 122°30'1 2.6
2018-Jun-23 12:30N 47°31' W 122°28'3 5.6
2018-Jun-23 12:01N 47°31' W 122°24'3 5.5
2018-Jun-23 11:30N 47°31' W 122°28'1 2.6
2018-Jun-23 11:00N 47°31' W 122°30'0 0.0
2018-Jun-23 10:30N 47°31' W 122°30'0 0.0
2018-Jun-23 10:00N 47°31' W 122°30'1 2.6
2018-Jun-23 09:30N 47°31' W 122°28'3 5.7
2018-Jun-23 09:00N 47°31' W 122°24'4 7.7
2018-Jun-23 08:31N 47°31' W 122°29'4 7.6
2018-Jun-23 08:00N 47°31' W 122°24'4 8.2
2018-Jun-23 07:30N 47°31' W 122°30'3 6.4
2018-Jun-23 07:00N 47°31' W 122°25'2 4.9
2018-Jun-23 06:30N 47°31' W 122°29'1 1.3
2018-Jun-23 06:00N 47°31' W 122°28'3 5.6
2018-Jun-23 05:30N 47°31' W 122°24'3 5.7
2018-Jun-23 05:01N 47°31' W 122°28'0 0.3
2018-Jun-23 04:30N 47°31' W 122°28'3 5.9
2018-Jun-23 04:01N 47°31' W 122°24'3 5.6
2018-Jun-23 03:30N 47°31' W 122°28'3 5.6
2018-Jun-23 03:00N 47°31' W 122°24'4 7.2
2018-Jun-23 02:30N 47°31' W 122°29'1 1.8
2018-Jun-23 02:01N 47°31' W 122°28'3 5.6
2018-Jun-23 01:30N 47°31' W 122°24'4 8.1
2018-Jun-23 01:00N 47°31' W 122°30'1 2.6
2018-Jun-23 00:30N 47°31' W 122°28'3 5.6
2018-Jun-23 00:00N 47°31' W 122°24'3 5.5
2018-Jun-22 23:30N 47°31' W 122°28'3 5.5
2018-Jun-22 23:00N 47°31' W 122°24'2 4.5
2018-Jun-22 22:30N 47°31' W 122°27'0 0.8
2018-Jun-22 22:00N 47°31' W 122°27'1 2.3
2018-Jun-22 21:30N 47°31' W 122°25'2 4.0
2018-Jun-22 21:00N 47°31' W 122°28'0 0.0
2018-Jun-22 20:31N 47°31' W 122°28'3 5.4
2018-Jun-22 20:00N 47°31' W 122°24'3 5.7
2018-Jun-22 19:30N 47°31' W 122°28'3 5.5
2018-Jun-22 19:00N 47°31' W 122°24'3 5.6
2018-Jun-22 18:31N 47°31' W 122°28'1 2.7
2018-Jun-22 18:00N 47°31' W 122°30'2 3.9
2018-Jun-22 17:30N 47°31' W 122°27'2 4.1
2018-Jun-22 17:00N 47°31' W 122°24'3 5.6
2018-Jun-22 16:30N 47°31' W 122°28'0 0.9
2018-Jun-22 16:00N 47°31' W 122°28'3 5.4
2018-Jun-22 15:30N 47°31' W 122°24'4 7.6
2018-Jun-22 15:01N 47°31' W 122°30'1 2.6
2018-Jun-22 14:30N 47°31' W 122°28'3 5.6
2018-Jun-22 14:00N 47°31' W 122°24'3 5.6
2018-Jun-22 13:31N 47°31' W 122°28'3 5.5
2018-Jun-22 13:00N 47°31' W 122°24'3 5.6
2018-Jun-22 12:31N 47°31' W 122°28'0 0.0
2018-Jun-22 12:01N 47°31' W 122°28'0 0.0
2018-Jun-22 11:31N 47°31' W 122°28'0 0.0
2018-Jun-22 11:00N 47°31' W 122°28'0 0.0
2018-Jun-22 10:31N 47°31' W 122°28'0 0.0
2018-Jun-22 10:01N 47°31' W 122°28'0 0.0
2018-Jun-22 09:31N 47°31' W 122°28'0 0.0
2018-Jun-22 09:00N 47°31' W 122°28'0 0.0
2018-Jun-22 08:31N 47°31' W 122°28'0 0.0
2018-Jun-22 08:00N 47°31' W 122°28'0 0.0
2018-Jun-22 07:31N 47°31' W 122°28'0 0.0
2018-Jun-22 07:00N 47°31' W 122°28'0 0.0
2018-Jun-22 06:31N 47°31' W 122°28'0 0.0
2018-Jun-22 06:01N 47°31' W 122°28'0 0.0
2018-Jun-22 05:31N 47°31' W 122°28'0 0.0
2018-Jun-22 05:01N 47°31' W 122°28'0 0.0
2018-Jun-22 04:31N 47°31' W 122°28'3 5.3
2018-Jun-22 04:00N 47°31' W 122°24'1 1.1
2018-Jun-22 03:31N 47°31' W 122°25'2 3.1
2018-Jun-22 03:00N 47°30' W 122°27'2 4.2
2018-Jun-22 02:30N 47°31' W 122°30'1 2.8
2018-Jun-22 02:00N 47°31' W 122°28'3 5.4
2018-Jun-22 01:31N 47°31' W 122°24'4 8.1
2018-Jun-22 01:00N 47°31' W 122°30'3 5.3
2018-Jun-22 00:31N 47°31' W 122°26'1 2.7
2018-Jun-22 00:00N 47°31' W 122°24'3 5.4
2018-Jun-21 23:31N 47°31' W 122°28'3 5.5
2018-Jun-21 23:00N 47°31' W 122°24'2 4.8
2018-Jun-21 22:31N 47°31' W 122°27'0 0.6
2018-Jun-21 22:00N 47°31' W 122°27'1 2.9
2018-Jun-21 21:30N 47°31' W 122°25'2 4.0
2018-Jun-21 21:00N 47°31' W 122°28'0 0.0
2018-Jun-21 20:30N 47°31' W 122°28'2 4.2
2018-Jun-21 20:00N 47°31' W 122°25'2 4.0
2018-Jun-21 19:31N 47°31' W 122°28'3 5.3
2018-Jun-21 19:00N 47°31' W 122°24'3 5.6
2018-Jun-21 18:30N 47°31' W 122°28'1 2.7
2018-Jun-21 18:00N 47°31' W 122°30'2 4.1
2018-Jun-21 17:30N 47°31' W 122°27'2 4.0
2018-Jun-21 17:00N 47°31' W 122°24'3 5.6
2018-Jun-21 16:31N 47°31' W 122°28'1 1.2
2018-Jun-21 16:00N 47°31' W 122°28'3 5.9
2018-Jun-21 15:30N 47°31' W 122°24'4 7.6
2018-Jun-21 15:01N 47°31' W 122°30'1 2.5
2018-Jun-21 14:30N 47°31' W 122°28'3 5.5
2018-Jun-21 14:00N 47°31' W 122°24'3 5.5
2018-Jun-21 13:30N 47°31' W 122°28'3 5.6
2018-Jun-21 13:01N 47°31' W 122°24'3 5.5
2018-Jun-21 12:31N 47°31' W 122°28'0 0.0
2018-Jun-21 12:00N 47°31' W 122°28'0 0.0
2018-Jun-21 11:30N 47°31' W 122°28'0 0.0
2018-Jun-21 11:00N 47°31' W 122°28'0 0.0
2018-Jun-21 10:30N 47°31' W 122°28'0 0.0
2018-Jun-21 10:00N 47°31' W 122°28'0 0.0
2018-Jun-21 09:31N 47°31' W 122°28'0 0.0
2018-Jun-21 09:00N 47°31' W 122°28'0 0.0
2018-Jun-21 08:31N 47°31' W 122°28'0 0.0
2018-Jun-21 08:00N 47°31' W 122°28'0 0.0
2018-Jun-21 07:30N 47°31' W 122°28'0 0.0
2018-Jun-21 07:00N 47°31' W 122°28'0 0.0
2018-Jun-21 06:31N 47°31' W 122°28'0 0.0
2018-Jun-21 06:01N 47°31' W 122°28'0 0.0
2018-Jun-21 05:30N 47°31' W 122°28'0 0.1
2018-Jun-21 05:01N 47°31' W 122°28'0 0.1
2018-Jun-21 04:31N 47°31' W 122°28'2 4.3
2018-Jun-21 04:00N 47°31' W 122°25'1 1.2
2018-Jun-21 03:31N 47°31' W 122°24'3 5.4
2018-Jun-21 03:00N 47°31' W 122°28'1 2.6
2018-Jun-21 02:30N 47°31' W 122°30'4 7.8
2018-Jun-21 02:01N 47°31' W 122°24'2 4.9
2018-Jun-21 01:30N 47°31' W 122°28'0 0.7
2018-Jun-21 01:00N 47°31' W 122°28'3 5.5
2018-Jun-21 00:30N 47°31' W 122°24'1 1.5
2018-Jun-21 00:00N 47°31' W 122°25'2 4.2
2018-Jun-20 23:30N 47°31' W 122°28'3 5.5
2018-Jun-20 23:00N 47°31' W 122°24'3 5.5
2018-Jun-20 22:30N 47°31' W 122°28'2 3.4
2018-Jun-20 22:00N 47°31' W 122°25'0 1.0
2018-Jun-20 21:30N 47°31' W 122°25'2 4.3
2018-Jun-20 21:00N 47°31' W 122°28'0 0.0
2018-Jun-20 20:30N 47°31' W 122°28'2 4.1
2018-Jun-20 20:01N 47°31' W 122°25'1 2.2
2018-Jun-20 19:30N 47°31' W 122°26'2 3.6
2018-Jun-20 19:00N 47°31' W 122°24'3 5.5
2018-Jun-20 18:30N 47°31' W 122°28'1 2.6
2018-Jun-20 18:00N 47°31' W 122°30'2 3.8
2018-Jun-20 17:31N 47°31' W 122°27'2 4.4
2018-Jun-20 17:01N 47°31' W 122°24'3 5.5
2018-Jun-20 16:31N 47°31' W 122°28'1 1.6
2018-Jun-20 16:00N 47°31' W 122°27'2 3.6
2018-Jun-20 15:31N 47°31' W 122°24'4 7.5
2018-Jun-20 15:00N 47°31' W 122°30'1 2.5
2018-Jun-20 14:30N 47°31' W 122°28'3 5.5
2018-Jun-20 14:00N 47°31' W 122°24'3 5.6
2018-Jun-20 13:31N 47°31' W 122°28'3 5.5
2018-Jun-20 13:01N 47°31' W 122°24'3 5.5
2018-Jun-20 12:30N 47°31' W 122°28'0 0.0
2018-Jun-20 12:00N 47°31' W 122°28'0 0.0
2018-Jun-20 11:30N 47°31' W 122°28'0 0.0
2018-Jun-20 11:00N 47°31' W 122°28'0 0.0
2018-Jun-20 10:30N 47°31' W 122°28'0 0.0
2018-Jun-20 10:00N 47°31' W 122°28'0 0.0
2018-Jun-20 09:30N 47°31' W 122°28'0 0.0
2018-Jun-20 09:00N 47°31' W 122°28'0 0.0
2018-Jun-20 08:30N 47°31' W 122°28'0 0.0
2018-Jun-20 08:00N 47°31' W 122°28'0 0.0
2018-Jun-20 07:30N 47°31' W 122°28'0 0.0
2018-Jun-20 07:00N 47°31' W 122°28'0 0.0
2018-Jun-20 06:30N 47°31' W 122°28'0 0.0
2018-Jun-20 06:00N 47°31' W 122°28'0 0.0
2018-Jun-20 05:30N 47°31' W 122°28'0 0.0
2018-Jun-20 05:00N 47°31' W 122°28'1 2.5
2018-Jun-20 04:30N 47°31' W 122°30'4 7.9
2018-Jun-20 04:01N 47°31' W 122°24'3 5.4
2018-Jun-20 03:30N 47°31' W 122°28'2 4.2
2018-Jun-20 03:00N 47°31' W 122°25'2 4.7
2018-Jun-20 02:31N 47°31' W 122°28'0 0.9
2018-Jun-20 02:00N 47°31' W 122°28'3 5.7
2018-Jun-20 01:30N 47°31' W 122°24'4 8.1
2018-Jun-20 01:01N 47°31' W 122°30'1 2.7
2018-Jun-20 00:30N 47°31' W 122°28'3 5.3
2018-Jun-20 00:00N 47°31' W 122°24'3 5.6
2018-Jun-19 23:30N 47°31' W 122°28'3 5.5
2018-Jun-19 23:00N 47°31' W 122°24'2 4.0
2018-Jun-19 22:30N 47°31' W 122°27'0 0.5
2018-Jun-19 22:00N 47°31' W 122°27'1 2.6
2018-Jun-19 21:30N 47°31' W 122°25'2 4.2
2018-Jun-19 21:00N 47°31' W 122°28'0 0.0
2018-Jun-19 20:30N 47°31' W 122°28'2 3.5
2018-Jun-19 20:01N 47°31' W 122°25'1 1.7
2018-Jun-19 19:31N 47°31' W 122°27'1 2.5
2018-Jun-19 19:00N 47°31' W 122°25'2 4.3
2018-Jun-19 18:30N 47°31' W 122°28'1 2.7
2018-Jun-19 18:01N 47°31' W 122°30'2 4.4
2018-Jun-19 17:31N 47°31' W 122°27'2 3.7
2018-Jun-19 17:00N 47°31' W 122°24'3 5.6
2018-Jun-19 16:31N 47°31' W 122°28'0 0.6
2018-Jun-19 16:00N 47°31' W 122°28'3 5.8
2018-Jun-19 15:30N 47°31' W 122°24'4 7.3
2018-Jun-19 15:00N 47°31' W 122°29'1 1.9
2018-Jun-19 14:30N 47°31' W 122°28'3 5.6
2018-Jun-19 14:00N 47°31' W 122°24'3 5.5
2018-Jun-19 13:30N 47°31' W 122°28'3 5.5
2018-Jun-19 13:00N 47°31' W 122°24'3 5.6
2018-Jun-19 12:30N 47°31' W 122°28'0 0.0
2018-Jun-19 12:00N 47°31' W 122°28'0 0.0
2018-Jun-19 11:30N 47°31' W 122°28'0 0.0
2018-Jun-19 11:00N 47°31' W 122°28'0 0.0
2018-Jun-19 10:30N 47°31' W 122°28'0 0.0
2018-Jun-19 10:00N 47°31' W 122°28'0 0.0
2018-Jun-19 09:30N 47°31' W 122°28'0 0.0
2018-Jun-19 09:00N 47°31' W 122°28'0 0.0
2018-Jun-19 08:30N 47°31' W 122°28'0 0.0
2018-Jun-19 08:00N 47°31' W 122°28'0 0.0
2018-Jun-19 07:30N 47°31' W 122°28'0 0.0
2018-Jun-19 07:00N 47°31' W 122°28'0 0.0
2018-Jun-19 06:30N 47°31' W 122°28'0 0.0
2018-Jun-19 06:00N 47°31' W 122°28'0 0.0
2018-Jun-19 05:31N 47°31' W 122°28'0 0.0
2018-Jun-19 05:00N 47°31' W 122°28'1 2.4
2018-Jun-19 04:30N 47°31' W 122°30'4 7.9
2018-Jun-19 04:00N 47°31' W 122°24'3 5.3
2018-Jun-19 03:31N 47°31' W 122°28'1 1.6
2018-Jun-19 03:01N 47°31' W 122°26'2 3.1
2018-Jun-19 02:30N 47°31' W 122°29'1 1.4
2018-Jun-19 02:00N 47°31' W 122°28'3 5.6
2018-Jun-19 01:30N 47°31' W 122°24'4 8.1
2018-Jun-19 01:01N 47°31' W 122°30'1 2.6
2018-Jun-19 00:30N 47°31' W 122°28'3 5.6
2018-Jun-19 00:00N 47°31' W 122°24'3 5.5
2018-Jun-18 23:30N 47°31' W 122°28'3 5.3
2018-Jun-18 22:59N 47°31' W 122°24'2 3.7
2018-Jun-18 22:31N 47°31' W 122°26'1 1.0
2018-Jun-18 22:00N 47°31' W 122°27'1 1.9
2018-Jun-18 21:30N 47°31' W 122°26'1 2.9
2018-Jun-18 21:00N 47°31' W 122°28'0 0.0
2018-Jun-18 20:30N 47°31' W 122°28'2 4.1
2018-Jun-18 20:01N 47°31' W 122°25'2 3.4
2018-Jun-18 19:30N 47°31' W 122°27'2 4.9
2018-Jun-18 19:00N 47°31' W 122°24'3 5.6
2018-Jun-18 18:30N 47°31' W 122°28'1 2.6
2018-Jun-18 18:00N 47°31' W 122°30'3 5.3
2018-Jun-18 17:30N 47°31' W 122°26'1 2.8
2018-Jun-18 17:00N 47°31' W 122°24'3 5.5
2018-Jun-18 16:31N 47°31' W 122°28'0 0.8
2018-Jun-18 16:01N 47°31' W 122°28'2 4.5
2018-Jun-18 15:31N 47°31' W 122°25'4 7.0
2018-Jun-18 15:00N 47°31' W 122°30'1 2.7
2018-Jun-18 14:30N 47°31' W 122°28'3 5.4
2018-Jun-18 14:00N 47°31' W 122°24'3 5.7
2018-Jun-18 13:30N 47°31' W 122°28'3 5.5
2018-Jun-18 13:01N 47°31' W 122°24'3 5.4
2018-Jun-18 12:30N 47°31' W 122°28'0 0.0
2018-Jun-18 12:00N 47°31' W 122°28'0 0.0
2018-Jun-18 11:31N 47°31' W 122°28'0 0.0
2018-Jun-18 11:00N 47°31' W 122°28'0 0.0
2018-Jun-18 10:31N 47°31' W 122°28'0 0.0
2018-Jun-18 10:00N 47°31' W 122°28'0 0.0
2018-Jun-18 09:30N 47°31' W 122°28'0 0.0
2018-Jun-18 09:01N 47°31' W 122°28'0 0.0
2018-Jun-18 08:31N 47°31' W 122°28'0 0.0
2018-Jun-18 08:00N 47°31' W 122°28'0 0.0
2018-Jun-18 07:30N 47°31' W 122°28'0 0.0
2018-Jun-18 07:00N 47°31' W 122°28'0 0.0
2018-Jun-18 06:31N 47°31' W 122°28'0 0.0
2018-Jun-18 06:01N 47°31' W 122°28'0 0.0
2018-Jun-18 05:31N 47°31' W 122°28'0 0.0
2018-Jun-18 05:00N 47°31' W 122°28'0 0.0
2018-Jun-18 04:30N 47°31' W 122°28'0 0.0
2018-Jun-18 04:00N 47°31' W 122°28'0 0.0
2018-Jun-18 03:31N 47°31' W 122°28'0 0.9
2018-Jun-18 03:00N 47°31' W 122°27'1 2.0
2018-Jun-18 02:30N 47°31' W 122°26'3 5.3
2018-Jun-18 02:00N 47°31' W 122°30'4 8.1
2018-Jun-18 01:30N 47°31' W 122°24'3 5.5
2018-Jun-18 01:00N 47°31' W 122°28'3 5.5
2018-Jun-18 00:30N 47°31' W 122°24'2 3.8
2018-Jun-18 00:00N 47°31' W 122°27'1 1.1
2018-Jun-17 23:30N 47°31' W 122°27'2 4.8
2018-Jun-17 22:59N 47°31' W 122°24'3 5.6
2018-Jun-17 22:31N 47°31' W 122°28'1 2.8
2018-Jun-17 22:00N 47°31' W 122°30'1 2.6
2018-Jun-17 21:31N 47°31' W 122°28'3 5.6
2018-Jun-17 21:01N 47°31' W 122°24'3 5.5
2018-Jun-17 20:31N 47°31' W 122°28'3 5.4
2018-Jun-17 20:00N 47°31' W 122°24'3 5.5
2018-Jun-17 19:31N 47°31' W 122°28'0 0.3
2018-Jun-17 19:00N 47°31' W 122°28'0 0.0
2018-Jun-17 18:30N 47°31' W 122°28'0 0.0
2018-Jun-17 18:00N 47°31' W 122°28'0 0.0
2018-Jun-17 17:30N 47°31' W 122°28'0 0.0
2018-Jun-17 17:00N 47°31' W 122°28'0 0.0
2018-Jun-17 16:30N 47°31' W 122°28'0 0.0
2018-Jun-17 16:00N 47°31' W 122°28'0 0.0
2018-Jun-17 15:30N 47°31' W 122°28'0 0.0
2018-Jun-17 15:00N 47°31' W 122°28'0 0.0
2018-Jun-17 14:30N 47°31' W 122°28'0 0.0
2018-Jun-17 14:00N 47°31' W 122°28'0 0.0
2018-Jun-17 13:30N 47°31' W 122°28'0 0.0
2018-Jun-17 13:00N 47°31' W 122°28'0 0.0
2018-Jun-17 12:30N 47°31' W 122°28'0 0.0
2018-Jun-17 12:00N 47°31' W 122°28'0 0.0
2018-Jun-17 11:30N 47°31' W 122°28'0 0.0
2018-Jun-17 11:00N 47°31' W 122°28'0 0.0
2018-Jun-17 10:30N 47°31' W 122°28'0 0.0
2018-Jun-17 10:00N 47°31' W 122°28'0 0.0
2018-Jun-17 09:30N 47°31' W 122°28'0 0.0
2018-Jun-17 09:00N 47°31' W 122°28'0 0.0
2018-Jun-17 08:30N 47°31' W 122°28'0 0.0
2018-Jun-17 08:00N 47°31' W 122°28'0 0.0
2018-Jun-17 07:30N 47°31' W 122°28'0 0.0
2018-Jun-17 07:00N 47°31' W 122°28'0 0.0
2018-Jun-17 06:30N 47°31' W 122°28'0 0.0
2018-Jun-17 06:00N 47°31' W 122°28'0 0.0
2018-Jun-17 05:30N 47°31' W 122°28'0 0.0
2018-Jun-17 05:00N 47°31' W 122°28'0 0.0
2018-Jun-17 04:30N 47°31' W 122°28'0 0.0
2018-Jun-17 04:00N 47°31' W 122°28'0 0.0
2018-Jun-17 03:30N 47°31' W 122°28'0 0.0
2018-Jun-17 03:00N 47°31' W 122°28'0 0.0
2018-Jun-17 02:30N 47°31' W 122°28'0 0.0
2018-Jun-17 02:00N 47°31' W 122°28'0 0.0
2018-Jun-17 01:30N 47°31' W 122°28'0 0.0
2018-Jun-17 01:00N 47°31' W 122°28'0 0.0
2018-Jun-17 00:30N 47°31' W 122°28'0 0.0
2018-Jun-17 00:00N 47°31' W 122°28'3 5.6
2018-Jun-16 23:30N 47°31' W 122°24'3 5.5
2018-Jun-16 23:00N 47°31' W 122°28'3 5.6
2018-Jun-16 22:31N 47°31' W 122°24'3 5.6
2018-Jun-16 22:00N 47°31' W 122°28'1 2.6
2018-Jun-16 21:31N 47°31' W 122°30'3 5.7
2018-Jun-16 21:00N 47°31' W 122°26'0 1.0
2018-Jun-16 20:31N 47°31' W 122°26'1 3.0
2018-Jun-16 20:00N 47°31' W 122°24'3 5.5
2018-Jun-16 19:30N 47°31' W 122°28'1 2.6
2018-Jun-16 19:00N 47°31' W 122°30'3 6.5
2018-Jun-16 18:30N 47°31' W 122°25'0 0.8
2018-Jun-16 18:01N 47°31' W 122°25'2 4.2
2018-Jun-16 17:31N 47°31' W 122°28'1 1.6
2018-Jun-16 17:00N 47°32' W 122°28'3 5.4
2018-Jun-16 16:31N 47°31' W 122°24'2 4.6
2018-Jun-16 16:00N 47°31' W 122°28'0 0.0
2018-Jun-16 15:30N 47°31' W 122°28'0 0.0
2018-Jun-16 15:00N 47°31' W 122°28'0 0.0
2018-Jun-16 14:30N 47°31' W 122°28'0 0.0
2018-Jun-16 14:00N 47°31' W 122°28'0 0.0
2018-Jun-16 13:30N 47°31' W 122°28'0 0.0
2018-Jun-16 13:00N 47°31' W 122°28'0 0.0
2018-Jun-16 12:30N 47°31' W 122°28'0 0.0
2018-Jun-16 12:00N 47°31' W 122°28'0 0.0
2018-Jun-16 11:30N 47°31' W 122°28'0 0.0
2018-Jun-16 11:00N 47°31' W 122°28'0 0.0
2018-Jun-16 10:30N 47°31' W 122°28'0 0.0
2018-Jun-16 10:00N 47°31' W 122°28'0 0.0
2018-Jun-16 09:30N 47°31' W 122°28'0 0.0
2018-Jun-16 09:00N 47°31' W 122°28'0 0.0
2018-Jun-16 08:30N 47°31' W 122°28'0 0.0
2018-Jun-16 08:00N 47°31' W 122°28'0 0.0
2018-Jun-16 07:30N 47°31' W 122°28'0 0.0
2018-Jun-16 07:00N 47°31' W 122°28'0 0.0
2018-Jun-16 06:30N 47°31' W 122°28'0 0.0
2018-Jun-16 06:00N 47°31' W 122°28'0 0.0
2018-Jun-16 05:30N 47°31' W 122°28'0 0.0
2018-Jun-16 05:00N 47°31' W 122°28'2 3.1
2018-Jun-16 04:30N 47°31' W 122°26'1 1.1
2018-Jun-16 04:01N 47°31' W 122°25'3 5.9
2018-Jun-16 03:30N 47°31' W 122°29'1 2.0
2018-Jun-16 03:01N 47°31' W 122°28'3 5.5
2018-Jun-16 02:30N 47°31' W 122°24'3 5.5
2018-Jun-16 02:00N 47°31' W 122°28'1 2.7
2018-Jun-16 01:30N 47°31' W 122°30'2 4.0
2018-Jun-16 01:01N 47°31' W 122°27'2 3.0
2018-Jun-16 00:31N 47°31' W 122°25'1 2.6
2018-Jun-16 00:01N 47°31' W 122°26'1 2.3
2018-Jun-15 23:30N 47°31' W 122°25'3 6.8
2018-Jun-15 23:00N 47°31' W 122°30'4 8.1
2018-Jun-15 22:30N 47°31' W 122°24'3 5.8
2018-Jun-15 22:01N 47°31' W 122°28'2 3.7
2018-Jun-15 21:30N 47°31' W 122°25'1 1.8
2018-Jun-15 21:00N 47°31' W 122°27'1 2.0
2018-Jun-15 20:30N 47°31' W 122°25'1 1.1
2018-Jun-15 20:00N 47°31' W 122°24'3 6.2
2018-Jun-15 19:30N 47°31' W 122°29'1 1.5
2018-Jun-15 19:00N 47°31' W 122°28'3 5.5
2018-Jun-15 18:30N 47°31' W 122°24'3 5.6
2018-Jun-15 18:01N 47°31' W 122°28'2 4.9
2018-Jun-15 17:30N 47°31' W 122°24'3 6.7
2018-Jun-15 17:01N 47°31' W 122°29'1 1.8
2018-Jun-15 16:30N 47°31' W 122°28'3 5.5
2018-Jun-15 16:00N 47°31' W 122°24'3 5.7
2018-Jun-15 15:30N 47°31' W 122°28'1 1.8
2018-Jun-15 15:00N 47°31' W 122°27'1 3.0
2018-Jun-15 14:30N 47°31' W 122°25'1 2.9
2018-Jun-15 14:00N 47°31' W 122°27'1 2.9
2018-Jun-15 13:30N 47°31' W 122°25'3 6.4
2018-Jun-15 13:00N 47°31' W 122°30'1 2.6
2018-Jun-15 12:30N 47°31' W 122°28'3 5.6
2018-Jun-15 12:00N 47°31' W 122°24'3 5.6
2018-Jun-15 11:30N 47°31' W 122°28'1 2.6
2018-Jun-15 11:00N 47°31' W 122°30'0 0.0
2018-Jun-15 10:31N 47°31' W 122°30'0 0.0
2018-Jun-15 10:01N 47°31' W 122°30'1 2.6
2018-Jun-15 09:31N 47°31' W 122°28'2 4.9
2018-Jun-15 09:00N 47°31' W 122°24'4 7.3
2018-Jun-15 08:31N 47°31' W 122°30'3 5.8
2018-Jun-15 08:01N 47°31' W 122°25'2 4.2
2018-Jun-15 07:31N 47°31' W 122°29'1 1.7
2018-Jun-15 07:00N 47°31' W 122°28'2 4.4
2018-Jun-15 06:30N 47°31' W 122°25'2 4.3
2018-Jun-15 06:01N 47°31' W 122°28'3 5.5
2018-Jun-15 05:31N 47°31' W 122°24'3 5.6
2018-Jun-15 05:01N 47°31' W 122°28'3 5.4
2018-Jun-15 04:29N 47°31' W 122°24'3 5.9
2018-Jun-15 04:01N 47°31' W 122°28'1 2.5
2018-Jun-15 03:30N 47°31' W 122°30'1 2.4
2018-Jun-15 03:00N 47°31' W 122°28'3 5.6
2018-Jun-15 02:30N 47°31' W 122°24'3 5.6
2018-Jun-15 02:00N 47°31' W 122°28'0 0.2
2018-Jun-15 01:30N 47°31' W 122°28'3 5.6
2018-Jun-15 01:00N 47°31' W 122°24'3 5.6
2018-Jun-15 00:30N 47°31' W 122°28'3 5.5
2018-Jun-15 00:00N 47°31' W 122°24'4 8.2
2018-Jun-14 23:31N 47°31' W 122°30'3 6.5
2018-Jun-14 23:01N 47°31' W 122°25'0 0.3
2018-Jun-14 22:30N 47°32' W 122°25'3 6.5
2018-Jun-14 22:00N 47°31' W 122°30'4 7.8
2018-Jun-14 21:30N 47°31' W 122°24'3 5.6
2018-Jun-14 21:01N 47°31' W 122°28'2 3.5
2018-Jun-14 20:30N 47°31' W 122°25'1 2.0
2018-Jun-14 20:01N 47°31' W 122°24'4 7.3
2018-Jun-14 19:30N 47°31' W 122°29'1 2.1
2018-Jun-14 19:00N 47°31' W 122°28'3 5.5
2018-Jun-14 18:30N 47°31' W 122°24'3 5.6
2018-Jun-14 18:01N 47°31' W 122°28'2 4.8
2018-Jun-14 17:31N 47°31' W 122°24'3 6.4
2018-Jun-14 17:01N 47°31' W 122°29'1 1.8
2018-Jun-14 16:31N 47°31' W 122°28'3 5.6
2018-Jun-14 16:00N 47°31' W 122°24'3 5.5
2018-Jun-14 15:31N 47°31' W 122°28'1 2.1
2018-Jun-14 15:01N 47°32' W 122°27'1 2.6
2018-Jun-14 14:30N 47°31' W 122°25'1 2.7
2018-Jun-14 14:01N 47°31' W 122°27'1 2.7
2018-Jun-14 13:30N 47°31' W 122°25'3 6.4
2018-Jun-14 13:00N 47°31' W 122°30'1 2.6
2018-Jun-14 12:30N 47°31' W 122°28'3 5.7
2018-Jun-14 12:00N 47°31' W 122°24'3 5.6
2018-Jun-14 11:31N 47°31' W 122°28'  

Dump ship's entire track history